createdAt,value
2017-08-21T00:02:03.649Z,52.8
2017-08-21T00:07:03.453Z,52.6
2017-08-21T00:12:03.283Z,52.6
2017-08-21T00:17:04.043Z,52.6
2017-08-21T00:22:03.808Z,52.5
2017-08-21T00:27:03.580Z,52.6
2017-08-21T00:32:03.559Z,52.6
2017-08-21T00:37:03.316Z,52.6
2017-08-21T00:42:03.110Z,52.6
2017-08-21T00:47:04.066Z,52.8
2017-08-21T00:52:03.563Z,52.8
2017-08-21T00:57:03.396Z,52.8
2017-08-21T01:02:03.254Z,52.8
2017-08-21T01:07:03.539Z,52.9
2017-08-21T01:12:03.427Z,52.8
2017-08-21T01:17:03.308Z,52.9
2017-08-21T01:22:03.112Z,52.8
2017-08-21T01:27:03.719Z,53.0
2017-08-21T01:32:03.684Z,52.9
2017-08-21T01:37:03.514Z,53.0
2017-08-21T01:42:03.254Z,53.1
2017-08-21T01:47:04.053Z,53.1
2017-08-21T01:52:03.791Z,53.1
2017-08-21T01:57:03.534Z,53.0
2017-08-21T02:02:03.555Z,53.0
2017-08-21T02:07:03.548Z,53.0
2017-08-21T02:12:03.501Z,53.0
2017-08-21T02:17:03.488Z,53.1
2017-08-21T02:22:03.118Z,53.2
2017-08-21T02:27:03.817Z,53.1
2017-08-21T02:32:03.679Z,53.0
2017-08-21T02:37:03.760Z,53.2
2017-08-21T02:42:03.092Z,53.1
2017-08-21T02:47:03.375Z,53.1
2017-08-21T02:52:03.655Z,53.1
2017-08-21T02:57:03.936Z,53.0
2017-08-21T03:02:03.342Z,53.2
2017-08-21T03:07:03.681Z,53.2
2017-08-21T03:12:03.169Z,53.3
2017-08-21T03:17:03.516Z,53.2
2017-08-21T03:22:03.787Z,53.2
2017-08-21T03:27:03.139Z,53.2
2017-08-21T03:32:03.772Z,53.3
2017-08-21T03:37:03.744Z,53.2
2017-08-21T03:42:03.067Z,53.4
2017-08-21T03:47:03.374Z,53.4
2017-08-21T03:52:03.655Z,53.3
2017-08-21T03:57:03.029Z,53.5
2017-08-21T04:02:14.681Z,53.4
2017-08-21T04:07:03.954Z,53.8
2017-08-21T04:12:03.565Z,53.6
2017-08-21T04:17:25.921Z,53.6
2017-08-21T04:22:03.695Z,53.5
2017-08-21T04:27:03.136Z,53.7
2017-08-21T04:32:25.981Z,53.8
2017-08-21T04:37:03.221Z,53.8
2017-08-21T04:42:03.731Z,53.8
2017-08-21T04:47:21.805Z,53.7
2017-08-21T04:52:03.583Z,53.7
2017-08-21T04:57:03.901Z,53.7
2017-08-21T05:02:23.619Z,53.7
2017-08-21T05:07:03.787Z,53.7
2017-08-21T05:12:03.331Z,53.7
2017-08-21T05:17:27.043Z,53.7
2017-08-21T05:22:03.303Z,53.7
2017-08-21T05:27:03.698Z,53.7
2017-08-21T05:37:03.660Z,53.6
2017-08-21T05:42:03.938Z,53.6
2017-08-21T05:47:24.772Z,53.4
2017-08-21T05:52:03.508Z,53.7
2017-08-21T05:57:03.845Z,53.5
2017-08-21T06:02:28.182Z,53.5
2017-08-21T06:07:03.340Z,53.5
2017-08-21T06:12:03.868Z,53.5
2017-08-21T06:17:22.027Z,53.4
2017-08-21T06:22:03.819Z,53.4
2017-08-21T06:27:03.254Z,53.4
2017-08-21T06:32:28.287Z,53.6
2017-08-21T06:37:03.598Z,53.6
2017-08-21T06:42:03.944Z,53.7
2017-08-21T06:47:21.985Z,53.6
2017-08-21T06:52:03.811Z,53.5
2017-08-21T06:57:03.216Z,53.4
2017-08-21T07:02:24.078Z,53.3
2017-08-21T07:07:03.920Z,53.4
2017-08-21T07:12:03.570Z,53.3
2017-08-21T07:17:22.581Z,53.3
2017-08-21T07:22:03.957Z,53.3
2017-08-21T07:27:03.218Z,53.3
2017-08-21T07:32:24.035Z,53.2
2017-08-21T07:37:03.731Z,53.3
2017-08-21T07:42:03.237Z,53.2
2017-08-21T07:47:28.623Z,53.2
2017-08-21T07:52:03.097Z,53.0
2017-08-21T07:57:03.576Z,53.0
2017-08-21T08:02:23.374Z,52.8
2017-08-21T08:07:03.730Z,52.7
2017-08-21T08:12:03.259Z,52.9
2017-08-21T08:17:24.390Z,52.9
2017-08-21T08:22:03.543Z,52.8
2017-08-21T08:27:03.918Z,52.7
2017-08-21T08:32:23.974Z,52.7
2017-08-21T08:37:03.261Z,53.0
2017-08-21T08:42:03.732Z,53.2
2017-08-21T08:47:28.088Z,53.3
2017-08-21T08:52:03.237Z,53.1
2017-08-21T08:57:03.720Z,53.4
2017-08-21T09:02:21.268Z,53.7
2017-08-21T09:07:03.501Z,53.6
2017-08-21T09:12:04.002Z,53.2
2017-08-21T09:17:22.261Z,52.8
2017-08-21T09:22:03.692Z,52.7
2017-08-21T09:27:04.044Z,53.1
2017-08-21T09:32:28.017Z,53.3
2017-08-21T09:37:03.457Z,53.3
2017-08-21T09:42:03.698Z,53.5
2017-08-21T09:47:23.929Z,53.4
2017-08-21T09:52:03.153Z,53.3
2017-08-21T09:57:03.613Z,52.8
2017-08-21T10:02:27.464Z,53.2
2017-08-21T10:07:03.907Z,53.4
2017-08-21T10:12:03.572Z,53.5
2017-08-21T10:17:24.606Z,53.3
2017-08-21T10:22:03.681Z,53.3
2017-08-21T10:27:03.116Z,53.0
2017-08-21T10:32:25.694Z,53.1
2017-08-21T10:37:03.889Z,53.4
2017-08-21T10:42:03.355Z,54.3
2017-08-21T10:47:26.041Z,54.2
2017-08-21T10:52:03.112Z,53.7
2017-08-21T10:57:03.698Z,53.6
2017-08-21T11:02:27.356Z,53.3
2017-08-21T11:07:03.619Z,53.3
2017-08-21T11:12:03.349Z,53.2
2017-08-21T11:17:28.689Z,53.2
2017-08-21T11:22:03.755Z,53.8
2017-08-21T11:27:03.273Z,53.7
2017-08-21T11:32:23.846Z,54.9
2017-08-21T11:37:03.290Z,54.9
2017-08-21T11:42:03.713Z,54.1
2017-08-21T11:47:28.539Z,54.4
2017-08-21T11:52:03.068Z,54.8
2017-08-21T11:57:03.551Z,54.8
2017-08-21T12:02:24.222Z,53.9
2017-08-21T12:07:03.637Z,54.6
2017-08-21T12:12:03.137Z,54.9
2017-08-21T12:17:23.784Z,54.8
2017-08-21T12:22:03.372Z,55.0
2017-08-21T12:27:03.759Z,54.1
2017-08-21T12:32:27.605Z,54.0
2017-08-21T12:37:03.811Z,54.2
2017-08-21T12:42:03.253Z,54.0
2017-08-21T12:47:28.688Z,54.3
2017-08-21T12:52:03.632Z,54.3
2017-08-21T12:57:03.148Z,54.5
2017-08-21T13:02:23.965Z,55.0
2017-08-21T13:07:03.298Z,55.0
2017-08-21T13:12:03.772Z,54.9
2017-08-21T13:17:23.636Z,54.6
2017-08-21T13:22:03.281Z,54.6
2017-08-21T13:27:03.804Z,54.6
2017-08-21T13:32:24.697Z,54.9
2017-08-21T13:37:03.708Z,54.5
2017-08-21T13:42:03.089Z,54.9
2017-08-21T13:47:26.676Z,55.2
2017-08-21T13:52:03.889Z,55.2
2017-08-21T13:57:03.305Z,55.0
2017-08-21T14:02:28.237Z,55.8
2017-08-21T14:07:03.308Z,55.8
2017-08-21T14:12:03.591Z,55.8
2017-08-21T14:17:29.446Z,55.4
2017-08-21T14:22:03.624Z,54.9
2017-08-21T14:27:03.112Z,54.9
2017-08-21T14:32:26.006Z,54.8
2017-08-21T14:37:03.917Z,55.0
2017-08-21T14:42:03.327Z,54.9
2017-08-21T14:47:24.105Z,55.2
2017-08-21T14:52:03.292Z,55.2
2017-08-21T14:57:03.699Z,50.2
2017-08-21T15:02:23.570Z,45.3
2017-08-21T15:07:03.114Z,44.4
2017-08-21T15:12:03.679Z,41.1
2017-08-21T15:17:25.416Z,40.6
2017-08-21T15:22:03.107Z,40.6
2017-08-21T15:27:03.519Z,39.9
2017-08-21T15:32:24.987Z,39.7
2017-08-21T15:37:03.565Z,39.7
2017-08-21T15:42:03.825Z,39.6
2017-08-21T15:47:21.807Z,39.7
2017-08-21T15:52:03.797Z,39.7
2017-08-21T15:57:03.254Z,39.6
2017-08-21T16:02:21.054Z,39.4
2017-08-21T16:07:03.614Z,43.4
2017-08-21T16:12:03.937Z,43.3
2017-08-21T16:17:24.118Z,42.2
2017-08-21T16:22:03.465Z,44.3
2017-08-21T16:27:03.781Z,48.7
2017-08-21T16:32:23.613Z,52.7
2017-08-21T16:37:03.744Z,52.7
2017-08-21T16:42:03.103Z,48.0
2017-08-21T16:47:24.114Z,48.4
2017-08-21T16:52:03.033Z,48.4
2017-08-21T16:57:03.433Z,51.0
2017-08-21T17:02:24.922Z,53.6
2017-08-21T17:07:03.343Z,54.3
2017-08-21T17:12:03.822Z,54.3
2017-08-21T17:17:24.259Z,54.8
2017-08-21T17:22:03.874Z,55.1
2017-08-21T17:27:03.307Z,55.6
2017-08-21T17:32:22.088Z,55.6
2017-08-21T17:37:03.289Z,55.3
2017-08-21T17:42:03.636Z,55.3
2017-08-21T17:47:28.062Z,55.5
2017-08-21T17:52:03.638Z,55.7
2017-08-21T17:57:03.025Z,55.7
2017-08-21T18:02:16.112Z,55.6
2017-08-21T18:07:03.202Z,55.5
2017-08-21T18:12:03.749Z,55.3
2017-08-21T18:17:23.864Z,55.4
2017-08-21T18:22:03.774Z,55.3
2017-08-21T18:27:03.228Z,55.2
2017-08-21T18:32:24.885Z,55.2
2017-08-21T18:37:03.494Z,55.2
2017-08-21T18:42:03.377Z,55.1
2017-08-21T18:47:26.334Z,55.1
2017-08-21T18:52:03.239Z,55.1
2017-08-21T18:57:03.549Z,54.9
2017-08-21T19:02:14.194Z,54.6
2017-08-21T19:07:03.385Z,54.6
2017-08-21T19:12:03.697Z,54.8
2017-08-21T19:17:10.137Z,54.7
2017-08-21T19:22:03.623Z,54.7
2017-08-21T19:27:03.926Z,54.7
2017-08-21T19:32:03.374Z,54.7
2017-08-21T19:37:03.629Z,54.6
2017-08-21T19:42:03.900Z,54.5
2017-08-21T19:47:03.335Z,54.5
2017-08-21T19:52:03.596Z,54.4
2017-08-21T19:57:03.949Z,54.4
2017-08-21T20:02:03.282Z,54.1
2017-08-21T20:07:03.654Z,54.1
2017-08-21T20:12:03.144Z,54.3
2017-08-21T20:17:03.546Z,54.2
2017-08-21T20:22:03.795Z,54.1
2017-08-21T20:27:03.183Z,53.9
2017-08-21T20:32:03.645Z,53.9
2017-08-21T20:37:03.803Z,53.9
2017-08-21T20:42:03.139Z,53.8
2017-08-21T20:47:03.441Z,53.8
2017-08-21T20:52:03.730Z,53.8
2017-08-21T20:57:03.126Z,53.9
2017-08-21T21:02:03.441Z,54.0
2017-08-21T21:07:03.847Z,54.2
2017-08-21T21:12:03.399Z,53.9
2017-08-21T21:17:03.908Z,54.0
2017-08-21T21:22:03.092Z,54.2
2017-08-21T21:27:03.383Z,54.2
2017-08-21T21:32:04.063Z,54.1
2017-08-21T21:37:03.221Z,54.2
2017-08-21T21:42:03.377Z,54.2
2017-08-21T21:47:03.862Z,54.1
2017-08-21T21:52:03.248Z,54.2
2017-08-21T21:57:03.459Z,54.1
2017-08-21T22:02:03.925Z,54.3
2017-08-21T22:07:03.379Z,54.1
2017-08-21T22:12:03.523Z,54.1
2017-08-21T22:22:03.784Z,54.0
2017-08-21T22:27:03.842Z,54.0
2017-08-21T22:32:03.330Z,54.0
2017-08-21T22:37:03.658Z,53.8
2017-08-21T22:42:03.256Z,53.8
2017-08-21T22:47:03.614Z,53.6
2017-08-21T22:52:03.677Z,53.6
2017-08-21T22:57:03.183Z,53.4
2017-08-21T23:02:03.887Z,53.4
2017-08-21T23:07:03.841Z,53.6
2017-08-21T23:12:03.887Z,53.4
2017-08-21T23:17:03.610Z,53.4
2017-08-21T23:22:03.663Z,53.6
2017-08-21T23:27:03.306Z,53.5
2017-08-21T23:32:03.950Z,53.5
2017-08-21T23:37:03.870Z,53.5
2017-08-21T23:42:03.627Z,53.6
2017-08-21T23:47:03.359Z,53.5
2017-08-21T23:52:03.615Z,53.5
2017-08-21T23:57:03.319Z,53.6
